sensor_id;sensor_type;location;lat;lon;timestamp;pressure;altitude;pressure_sealevel;temperature;humidity
21988;BME280;11158;53.404;-1.510;2024-01-30T00:01:50;100836.28;;;9.88;100.00
21988;BME280;11158;53.404;-1.510;2024-01-30T00:04:16;100833.72;;;9.85;100.00
21988;BME280;11158;53.404;-1.510;2024-01-30T00:06:43;100830.13;;;9.86;100.00
21988;BME280;11158;53.404;-1.510;2024-01-30T00:09:08;100832.75;;;9.87;100.00
21988;BME280;11158;53.404;-1.510;2024-01-30T00:11:34;100828.06;;;9.94;100.00
21988;BME280;11158;53.404;-1.510;2024-01-30T00:13:59;100825.31;;;9.97;100.00
21988;BME280;11158;53.404;-1.510;2024-01-30T00:16:25;100831.50;;;9.97;100.00
21988;BME280;11158;53.404;-1.510;2024-01-30T00:18:51;100829.78;;;9.96;100.00
21988;BME280;11158;53.404;-1.510;2024-01-30T00:21:17;100823.72;;;9.91;100.00
21988;BME280;11158;53.404;-1.510;2024-01-30T00:23:43;100824.56;;;9.93;100.00
21988;BME280;11158;53.404;-1.510;2024-01-30T00:26:09;100817.53;;;9.91;100.00
21988;BME280;11158;53.404;-1.510;2024-01-30T00:28:34;100816.53;;;9.95;100.00
21988;BME280;11158;53.404;-1.510;2024-01-30T00:31:00;100818.16;;;9.99;100.00
21988;BME280;11158;53.404;-1.510;2024-01-30T00:33:25;100810.91;;;10.04;100.00
21988;BME280;11158;53.404;-1.510;2024-01-30T00:35:51;100814.38;;;10.06;100.00
21988;BME280;11158;53.404;-1.510;2024-01-30T00:38:16;100803.00;;;10.01;100.00
21988;BME280;11158;53.404;-1.510;2024-01-30T00:40:42;100810.03;;;10.04;100.00
21988;BME280;11158;53.404;-1.510;2024-01-30T00:43:07;100804.72;;;10.04;100.00
21988;BME280;11158;53.404;-1.510;2024-01-30T00:45:32;100807.38;;;10.04;100.00
21988;BME280;11158;53.404;-1.510;2024-01-30T00:47:58;100804.72;;;10.04;100.00
21988;BME280;11158;53.404;-1.510;2024-01-30T00:50:23;100802.94;;;10.03;100.00
21988;BME280;11158;53.404;-1.510;2024-01-30T00:52:49;100797.28;;;10.13;100.00
21988;BME280;11158;53.404;-1.510;2024-01-30T00:55:14;100797.28;;;10.13;100.00
21988;BME280;11158;53.404;-1.510;2024-01-30T00:57:40;100800.03;;;10.10;100.00
21988;BME280;11158;53.404;-1.510;2024-01-30T01:00:06;100796.56;;;10.08;100.00
21988;BME280;11158;53.404;-1.510;2024-01-30T01:02:34;100799.22;;;10.08;100.00
21988;BME280;11158;53.404;-1.510;2024-01-30T01:05:00;100805.47;;;10.07;100.00
21988;BME280;11158;53.404;-1.510;2024-01-30T01:07:25;100798.50;;;10.03;100.00
21988;BME280;11158;53.404;-1.510;2024-01-30T01:09:50;100802.91;;;10.04;100.00
21988;BME280;11158;53.404;-1.510;2024-01-30T01:12:16;100794.84;;;10.07;100.00
21988;BME280;11158;53.404;-1.510;2024-01-30T01:14:41;100791.31;;;10.05;100.00
21988;BME280;11158;53.404;-1.510;2024-01-30T01:17:08;100787.72;;;10.08;100.00
21988;BME280;11158;53.404;-1.510;2024-01-30T01:19:33;100777.97;;;10.07;100.00
21988;BME280;11158;53.404;-1.510;2024-01-30T01:21:59;100785.81;;;10.11;100.00
21988;BME280;11158;53.404;-1.510;2024-01-30T01:24:24;100782.88;;;10.19;100.00
21988;BME280;11158;53.404;-1.510;2024-01-30T01:26:50;100785.66;;;10.16;100.00
21988;BME280;11158;53.404;-1.510;2024-01-30T01:29:15;100774.25;;;10.11;100.00
21988;BME280;11158;53.404;-1.510;2024-01-30T01:31:41;100772.50;;;10.11;100.00
21988;BME280;11158;53.404;-1.510;2024-01-30T01:34:13;100771.47;;;10.15;100.00
21988;BME280;11158;53.404;-1.510;2024-01-30T01:36:39;100769.53;;;10.21;100.00
21988;BME280;11158;53.404;-1.510;2024-01-30T01:39:04;100766.91;;;10.19;100.00
21988;BME280;11158;53.404;-1.510;2024-01-30T01:41:32;100765.16;;;10.18;100.00
21988;BME280;11158;53.404;-1.510;2024-01-30T01:43:59;100762.63;;;10.15;100.00
21988;BME280;11158;53.404;-1.510;2024-01-30T01:46:27;100765.31;;;10.13;100.00
21988;BME280;11158;53.404;-1.510;2024-01-30T01:48:53;100768.06;;;10.10;100.00
21988;BME280;11158;53.404;-1.510;2024-01-30T01:51:20;100759.28;;;10.08;100.00
21988;BME280;11158;53.404;-1.510;2024-01-30T01:53:46;100756.59;;;10.08;100.00
21988;BME280;11158;53.404;-1.510;2024-01-30T01:56:12;100757.59;;;10.06;100.00
21988;BME280;11158;53.404;-1.510;2024-01-30T01:58:37;100766.22;;;10.12;100.00
21988;BME280;11158;53.404;-1.510;2024-01-30T02:01:04;100760.00;;;10.13;100.00
21988;BME280;11158;53.404;-1.510;2024-01-30T02:03:30;100763.56;;;10.12;100.00
21988;BME280;11158;53.404;-1.510;2024-01-30T02:05:56;100767.16;;;10.11;100.00
21988;BME280;11158;53.404;-1.510;2024-01-30T02:08:22;100766.13;;;10.15;100.00
21988;BME280;11158;53.404;-1.510;2024-01-30T02:10:48;100773.16;;;10.18;100.00
21988;BME280;11158;53.404;-1.510;2024-01-30T02:13:13;100769.72;;;10.14;100.00
21988;BME280;11158;53.404;-1.510;2024-01-30T02:15:39;100775.94;;;10.15;100.00
21988;BME280;11158;53.404;-1.510;2024-01-30T02:18:04;100782.25;;;10.11;100.00
21988;BME280;11158;53.404;-1.510;2024-01-30T02:20:30;100793.53;;;10.19;100.00
21988;BME280;11158;53.404;-1.510;2024-01-30T02:22:58;100789.81;;;9.98;100.00
21988;BME280;11158;53.404;-1.510;2024-01-30T02:25:35;100791.94;;;9.87;99.49
21988;BME280;11158;53.404;-1.510;2024-01-30T02:28:00;100791.47;;;9.74;99.71
21988;BME280;11158;53.404;-1.510;2024-01-30T02:30:26;100798.09;;;9.61;99.36
21988;BME280;11158;53.404;-1.510;2024-01-30T02:32:52;100804.09;;;9.39;98.80
21988;BME280;11158;53.404;-1.510;2024-01-30T02:35:18;100800.09;;;9.24;96.78
21988;BME280;11158;53.404;-1.510;2024-01-30T02:37:43;100795.97;;;9.12;95.94
21988;BME280;11158;53.404;-1.510;2024-01-30T02:40:10;100800.66;;;9.04;95.18
21988;BME280;11158;53.404;-1.510;2024-01-30T02:42:36;100797.53;;;8.90;95.19
21988;BME280;11158;53.404;-1.510;2024-01-30T02:45:01;100802.31;;;8.77;94.57
21988;BME280;11158;53.404;-1.510;2024-01-30T02:47:26;100812.97;;;8.77;95.21
21988;BME280;11158;53.404;-1.510;2024-01-30T02:49:52;100811.44;;;8.67;94.55
21988;BME280;11158;53.404;-1.510;2024-01-30T02:52:17;100814.41;;;8.56;94.60
21988;BME280;11158;53.404;-1.510;2024-01-30T02:54:44;100826.03;;;8.52;94.56
21988;BME280;11158;53.404;-1.510;2024-01-30T02:57:09;100833.16;;;8.50;94.72
21988;BME280;11158;53.404;-1.510;2024-01-30T02:59:35;100830.56;;;8.48;94.53
21988;BME280;11158;53.404;-1.510;2024-01-30T03:02:07;100834.16;;;8.46;93.92
21988;BME280;11158;53.404;-1.510;2024-01-30T03:04:42;100830.59;;;8.47;93.96
21988;BME280;11158;53.404;-1.510;2024-01-30T03:07:08;100839.41;;;8.47;94.22
21988;BME280;11158;53.404;-1.510;2024-01-30T03:09:34;100844.69;;;8.49;94.35
21988;BME280;11158;53.404;-1.510;2024-01-30T03:11:59;100841.19;;;8.48;93.72
21988;BME280;11158;53.404;-1.510;2024-01-30T03:14:25;100832.41;;;8.45;93.31
21988;BME280;11158;53.404;-1.510;2024-01-30T03:16:50;100837.88;;;8.38;93.38
21988;BME280;11158;53.404;-1.510;2024-01-30T03:19:16;100845.75;;;8.40;94.02
21988;BME280;11158;53.404;-1.510;2024-01-30T03:21:42;100842.38;;;8.35;93.84
21988;BME280;11158;53.404;-1.510;2024-01-30T03:24:07;100839.00;;;8.28;93.33
21988;BME280;11158;53.404;-1.510;2024-01-30T03:26:32;100847.81;;;8.29;92.85
21988;BME280;11158;53.404;-1.510;2024-01-30T03:28:58;100841.63;;;8.30;91.34
21988;BME280;11158;53.404;-1.510;2024-01-30T03:31:23;100847.03;;;8.25;90.45
21988;BME280;11158;53.404;-1.510;2024-01-30T03:33:49;100859.53;;;8.21;90.32
21988;BME280;11158;53.404;-1.510;2024-01-30T03:36:15;100860.50;;;8.17;90.70
21988;BME280;11158;53.404;-1.510;2024-01-30T03:38:41;100872.88;;;8.18;90.24
21988;BME280;11158;53.404;-1.510;2024-01-30T03:41:09;100873.94;;;8.10;90.31
21988;BME280;11158;53.404;-1.510;2024-01-30T03:43:35;100885.47;;;8.10;91.96
21988;BME280;11158;53.404;-1.510;2024-01-30T03:46:02;100886.31;;;8.11;91.00
21988;BME280;11158;53.404;-1.510;2024-01-30T03:48:28;100888.91;;;8.14;90.31
21988;BME280;11158;53.404;-1.510;2024-01-30T03:50:53;100892.59;;;8.08;92.44
21988;BME280;11158;53.404;-1.510;2024-01-30T03:53:19;100899.75;;;8.05;91.56
21988;BME280;11158;53.404;-1.510;2024-01-30T03:55:44;100899.63;;;8.09;90.94
21988;BME280;11158;53.404;-1.510;2024-01-30T03:58:09;100914.66;;;8.10;90.67
21988;BME280;11158;53.404;-1.510;2024-01-30T04:00:35;100925.16;;;8.15;90.00
21988;BME280;11158;53.404;-1.510;2024-01-30T04:03:00;100915.63;;;8.06;89.96
21988;BME280;11158;53.404;-1.510;2024-01-30T04:05:26;100922.81;;;8.02;89.51
21988;BME280;11158;53.404;-1.510;2024-01-30T04:07:51;100928.28;;;7.95;89.63
21988;BME280;11158;53.404;-1.510;2024-01-30T04:10:16;100932.53;;;8.02;89.52
21988;BME280;11158;53.404;-1.510;2024-01-30T04:12:42;100934.44;;;7.97;90.29
21988;BME280;11158;53.404;-1.510;2024-01-30T04:15:08;100923.03;;;7.92;91.36
21988;BME280;11158;53.404;-1.510;2024-01-30T04:17:33;100925.72;;;7.90;91.20
21988;BME280;11158;53.404;-1.510;2024-01-30T04:19:59;100941.47;;;7.98;92.24
21988;BME280;11158;53.404;-1.510;2024-01-30T04:22:24;100938.91;;;7.95;90.95
21988;BME280;11158;53.404;-1.510;2024-01-30T04:24:49;100946.09;;;7.90;90.23
21988;BME280;11158;53.404;-1.510;2024-01-30T04:27:15;100939.91;;;7.89;90.88
21988;BME280;11158;53.404;-1.510;2024-01-30T04:29:40;100939.09;;;7.86;90.38
21988;BME280;11158;53.404;-1.510;2024-01-30T04:32:06;100949.88;;;7.78;92.07
21988;BME280;11158;53.404;-1.510;2024-01-30T04:34:31;100944.81;;;7.66;92.34
21988;BME280;11158;53.404;-1.510;2024-01-30T04:36:57;100951.06;;;7.65;91.96
21988;BME280;11158;53.404;-1.510;2024-01-30T04:39:22;100952.09;;;7.56;92.09
21988;BME280;11158;53.404;-1.510;2024-01-30T04:41:47;100953.19;;;7.46;92.84
21988;BME280;11158;53.404;-1.510;2024-01-30T04:44:13;100962.19;;;7.38;93.74
21988;BME280;11158;53.404;-1.510;2024-01-30T04:46:39;100968.38;;;7.37;94.27
21988;BME280;11158;53.404;-1.510;2024-01-30T04:49:04;100960.38;;;7.40;93.90
21988;BME280;11158;53.404;-1.510;2024-01-30T04:51:30;100966.56;;;7.39;93.13
21988;BME280;11158;53.404;-1.510;2024-01-30T04:53:55;100979.81;;;7.39;93.18
21988;BME280;11158;53.404;-1.510;2024-01-30T04:56:21;100979.59;;;7.52;93.67
21988;BME280;11158;53.404;-1.510;2024-01-30T04:58:47;100984.03;;;7.51;93.39
21988;BME280;11158;53.404;-1.510;2024-01-30T05:01:16;100992.00;;;7.51;93.08
21988;BME280;11158;53.404;-1.510;2024-01-30T05:03:42;100998.19;;;7.50;92.61
21988;BME280;11158;53.404;-1.510;2024-01-30T05:06:08;101005.19;;;7.53;93.07
21988;BME280;11158;53.404;-1.510;2024-01-30T05:08:33;101012.25;;;7.54;92.76
21988;BME280;11158;53.404;-1.510;2024-01-30T05:11:02;101026.53;;;7.47;92.67
21988;BME280;11158;53.404;-1.510;2024-01-30T05:13:32;101023.94;;;7.43;93.48
21988;BME280;11158;53.404;-1.510;2024-01-30T05:15:57;101031.00;;;7.45;93.00
21988;BME280;11158;53.404;-1.510;2024-01-30T05:18:23;101029.22;;;7.45;93.00
21988;BME280;11158;53.404;-1.510;2024-01-30T05:20:52;101034.53;;;7.43;93.05
21988;BME280;11158;53.404;-1.510;2024-01-30T05:23:17;101047.91;;;7.37;93.72
21988;BME280;11158;53.404;-1.510;2024-01-30T05:25:42;101044.44;;;7.35;93.74
21988;BME280;11158;53.404;-1.510;2024-01-30T05:28:08;101053.28;;;7.34;93.67
21988;BME280;11158;53.404;-1.510;2024-01-30T05:30:33;101062.38;;;7.21;94.32
21988;BME280;11158;53.404;-1.510;2024-01-30T05:32:59;101063.38;;;7.14;95.42
21988;BME280;11158;53.404;-1.510;2024-01-30T05:35:24;101074.00;;;7.12;96.18
21988;BME280;11158;53.404;-1.510;2024-01-30T05:37:51;101081.13;;;7.07;96.15
21988;BME280;11158;53.404;-1.510;2024-01-30T05:40:16;101082.06;;;7.06;96.11
21988;BME280;11158;53.404;-1.510;2024-01-30T05:42:42;101092.63;;;7.08;97.01
21988;BME280;11158;53.404;-1.510;2024-01-30T05:45:08;101097.03;;;7.07;97.45
21988;BME280;11158;53.404;-1.510;2024-01-30T05:47:34;101101.44;;;7.10;97.82
21988;BME280;11158;53.404;-1.510;2024-01-30T05:49:59;101120.00;;;7.08;97.44
21988;BME280;11158;53.404;-1.510;2024-01-30T05:52:25;101123.50;;;7.12;98.01
21988;BME280;11158;53.404;-1.510;2024-01-30T05:54:50;101124.47;;;7.04;98.01
21988;BME280;11158;53.404;-1.510;2024-01-30T05:57:16;101130.72;;;7.00;98.15
21988;BME280;11158;53.404;-1.510;2024-01-30T05:59:43;101137.72;;;7.04;98.32
21988;BME280;11158;53.404;-1.510;2024-01-30T06:02:10;101140.72;;;6.83;97.57
21988;BME280;11158;53.404;-1.510;2024-01-30T06:04:38;101151.47;;;6.69;97.87
21988;BME280;11158;53.404;-1.510;2024-01-30T06:07:03;101150.84;;;6.50;97.21
21988;BME280;11158;53.404;-1.510;2024-01-30T06:09:31;101162.47;;;6.40;98.08
21988;BME280;11158;53.404;-1.510;2024-01-30T06:11:57;101158.94;;;6.38;98.46
21988;BME280;11158;53.404;-1.510;2024-01-30T06:14:22;101175.72;;;6.38;98.04
21988;BME280;11158;53.404;-1.510;2024-01-30T06:16:48;101181.00;;;6.38;98.31
21988;BME280;11158;53.404;-1.510;2024-01-30T06:19:14;101187.03;;;6.50;99.90
21988;BME280;11158;53.404;-1.510;2024-01-30T06:21:39;101197.75;;;6.40;99.25
21988;BME280;11158;53.404;-1.510;2024-01-30T06:24:05;101204.06;;;6.30;99.04
21988;BME280;11158;53.404;-1.510;2024-01-30T06:26:30;101212.78;;;6.35;98.54
21988;BME280;11158;53.404;-1.510;2024-01-30T06:28:56;101205.84;;;6.28;98.71
21988;BME280;11158;53.404;-1.510;2024-01-30T06:31:21;101225.19;;;6.33;99.40
21988;BME280;11158;53.404;-1.510;2024-01-30T06:33:47;101224.31;;;6.31;99.78
21988;BME280;11158;53.404;-1.510;2024-01-30T06:36:12;101223.44;;;6.32;99.14
21988;BME280;11158;53.404;-1.510;2024-01-30T06:38:38;101243.72;;;6.32;99.03
21988;BME280;11158;53.404;-1.510;2024-01-30T06:41:03;101232.19;;;6.37;98.88
21988;BME280;11158;53.404;-1.510;2024-01-30T06:43:29;101243.81;;;6.24;98.14
21988;BME280;11158;53.404;-1.510;2024-01-30T06:45:54;101245.63;;;6.20;99.12
21988;BME280;11158;53.404;-1.510;2024-01-30T06:48:20;101248.28;;;6.20;98.78
21988;BME280;11158;53.404;-1.510;2024-01-30T06:50:45;101257.94;;;6.24;99.23
21988;BME280;11158;53.404;-1.510;2024-01-30T06:53:11;101263.22;;;6.26;99.14
21988;BME280;11158;53.404;-1.510;2024-01-30T06:55:36;101266.81;;;6.17;97.99
21988;BME280;11158;53.404;-1.510;2024-01-30T06:58:02;101269.31;;;6.34;99.25
21988;BME280;11158;53.404;-1.510;2024-01-30T07:00:27;101273.84;;;6.18;98.06
21988;BME280;11158;53.404;-1.510;2024-01-30T07:02:52;101277.41;;;6.17;98.36
21988;BME280;11158;53.404;-1.510;2024-01-30T07:05:18;101275.63;;;6.16;98.65
21988;BME280;11158;53.404;-1.510;2024-01-30T07:07:43;101294.25;;;6.09;97.60
21988;BME280;11158;53.404;-1.510;2024-01-30T07:10:09;101289.78;;;6.15;98.50
21988;BME280;11158;53.404;-1.510;2024-01-30T07:12:34;101308.38;;;6.08;97.79
21988;BME280;11158;53.404;-1.510;2024-01-30T07:15:00;101314.53;;;6.10;98.10
21988;BME280;11158;53.404;-1.510;2024-01-30T07:17:26;101320.63;;;6.18;98.34
21988;BME280;11158;53.404;-1.510;2024-01-30T07:19:51;101321.56;;;6.14;97.78
21988;BME280;11158;53.404;-1.510;2024-01-30T07:22:17;101319.78;;;6.13;97.36
21988;BME280;11158;53.404;-1.510;2024-01-30T07:24:43;101332.19;;;6.06;97.54
21988;BME280;11158;53.404;-1.510;2024-01-30T07:27:10;101341.91;;;6.05;97.46
21988;BME280;11158;53.404;-1.510;2024-01-30T07:29:36;101348.09;;;6.06;97.87
21988;BME280;11158;53.404;-1.510;2024-01-30T07:32:02;101358.66;;;6.04;98.08
21988;BME280;11158;53.404;-1.510;2024-01-30T07:34:27;101357.81;;;6.02;97.92
21988;BME280;11158;53.404;-1.510;2024-01-30T07:36:53;101364.00;;;6.00;97.46
21988;BME280;11158;53.404;-1.510;2024-01-30T07:39:18;101363.13;;;5.95;97.18
21988;BME280;11158;53.404;-1.510;2024-01-30T07:41:43;101367.56;;;5.96;96.23
21988;BME280;11158;53.404;-1.510;2024-01-30T07:44:09;101373.72;;;5.92;95.26
21988;BME280;11158;53.404;-1.510;2024-01-30T07:46:34;101373.81;;;5.79;95.85
21988;BME280;11158;53.404;-1.510;2024-01-30T07:48:59;101386.13;;;5.85;94.42
21988;BME280;11158;53.404;-1.510;2024-01-30T07:51:25;101388.78;;;5.85;95.29
21988;BME280;11158;53.404;-1.510;2024-01-30T07:53:50;101400.25;;;5.82;95.11
21988;BME280;11158;53.404;-1.510;2024-01-30T07:56:16;101401.13;;;5.80;95.46
21988;BME280;11158;53.404;-1.510;2024-01-30T07:58:41;101399.34;;;5.86;94.54
21988;BME280;11158;53.404;-1.510;2024-01-30T08:01:06;101414.31;;;5.86;94.41
21988;BME280;11158;53.404;-1.510;2024-01-30T08:03:32;101416.06;;;5.92;93.69
21988;BME280;11158;53.404;-1.510;2024-01-30T08:05:58;101431.06;;;5.91;94.16
21988;BME280;11158;53.404;-1.510;2024-01-30T08:08:24;101432.78;;;5.94;93.99
21988;BME280;11158;53.404;-1.510;2024-01-30T08:10:50;101446.97;;;5.86;93.74
21988;BME280;11158;53.404;-1.510;2024-01-30T08:13:16;101442.59;;;5.81;94.04
21988;BME280;11158;53.404;-1.510;2024-01-30T08:15:41;101450.53;;;5.78;95.23
21988;BME280;11158;53.404;-1.510;2024-01-30T08:18:07;101457.59;;;5.79;95.19
21988;BME280;11158;53.404;-1.510;2024-01-30T08:20:32;101460.25;;;5.76;95.57
21988;BME280;11158;53.404;-1.510;2024-01-30T08:22:58;101470.84;;;5.71;95.34
21988;BME280;11158;53.404;-1.510;2024-01-30T08:25:25;101471.69;;;5.79;95.27
21988;BME280;11158;53.404;-1.510;2024-01-30T08:27:51;101476.06;;;5.82;95.92
21988;BME280;11158;53.404;-1.510;2024-01-30T08:30:16;101482.22;;;5.87;95.56
21988;BME280;11158;53.404;-1.510;2024-01-30T08:32:41;101497.19;;;5.90;94.38
21988;BME280;11158;53.404;-1.510;2024-01-30T08:35:07;101498.97;;;6.01;94.08
21988;BME280;11158;53.404;-1.510;2024-01-30T08:37:33;101513.94;;;6.04;94.30
21988;BME280;11158;53.404;-1.510;2024-01-30T08:39:59;101518.31;;;6.10;93.35
21988;BME280;11158;53.404;-1.510;2024-01-30T08:42:24;101525.31;;;6.18;93.36
21988;BME280;11158;53.404;-1.510;2024-01-30T08:44:50;101529.72;;;6.19;93.51
21988;BME280;11158;53.404;-1.510;2024-01-30T08:47:17;101538.53;;;6.21;92.71
21988;BME280;11158;53.404;-1.510;2024-01-30T08:49:44;101540.28;;;6.27;92.50
21988;BME280;11158;53.404;-1.510;2024-01-30T08:52:10;101541.19;;;6.23;91.92
21988;BME280;11158;53.404;-1.510;2024-01-30T08:54:35;101547.34;;;6.27;91.36
21988;BME280;11158;53.404;-1.510;2024-01-30T08:57:01;101548.22;;;6.29;91.46
21988;BME280;11158;53.404;-1.510;2024-01-30T08:59:27;101561.41;;;6.33;89.63
21988;BME280;11158;53.404;-1.510;2024-01-30T09:01:52;101564.91;;;6.41;89.21
21988;BME280;11158;53.404;-1.510;2024-01-30T09:04:21;101569.34;;;6.38;88.51
21988;BME280;11158;53.404;-1.510;2024-01-30T09:06:47;101577.31;;;6.35;88.03
21988;BME280;11158;53.404;-1.510;2024-01-30T09:09:13;101580.81;;;6.40;87.85
21988;BME280;11158;53.404;-1.510;2024-01-30T09:11:39;101591.38;;;6.43;87.42
21988;BME280;11158;53.404;-1.510;2024-01-30T09:14:05;101601.97;;;6.46;87.51
21988;BME280;11158;53.404;-1.510;2024-01-30T09:16:30;101605.50;;;6.45;87.27
21988;BME280;11158;53.404;-1.510;2024-01-30T09:18:56;101612.56;;;6.46;88.40
21988;BME280;11158;53.404;-1.510;2024-01-30T09:21:21;101625.75;;;6.54;88.14
21988;BME280;11158;53.404;-1.510;2024-01-30T09:23:46;101622.22;;;6.55;87.03
21988;BME280;11158;53.404;-1.510;2024-01-30T09:26:12;101636.34;;;6.52;86.50
21988;BME280;11158;53.404;-1.510;2024-01-30T09:28:38;101636.34;;;6.55;86.54
21988;BME280;11158;53.404;-1.510;2024-01-30T09:31:03;101639.00;;;6.57;87.25
21988;BME280;11158;53.404;-1.510;2024-01-30T09:33:29;101648.69;;;6.58;87.33
21988;BME280;11158;53.404;-1.510;2024-01-30T09:35:54;101647.75;;;6.65;85.78
21988;BME280;11158;53.404;-1.510;2024-01-30T09:38:20;101653.09;;;6.60;85.31
21988;BME280;11158;53.404;-1.510;2024-01-30T09:40:51;101664.56;;;6.56;84.95
21988;BME280;11158;53.404;-1.510;2024-01-30T09:43:22;101670.78;;;6.57;84.01
21988;BME280;11158;53.404;-1.510;2024-01-30T09:45:50;101674.25;;;6.65;84.49
21988;BME280;11158;53.404;-1.510;2024-01-30T09:48:15;101681.34;;;6.61;83.95
21988;BME280;11158;53.404;-1.510;2024-01-30T09:50:41;101692.88;;;6.51;83.20
21988;BME280;11158;53.404;-1.510;2024-01-30T09:53:08;101688.44;;;6.52;82.88
21988;BME280;11158;53.404;-1.510;2024-01-30T09:55:35;101698.13;;;6.56;83.22
21988;BME280;11158;53.404;-1.510;2024-01-30T09:58:01;101702.56;;;6.58;83.69
21988;BME280;11158;53.404;-1.510;2024-01-30T10:00:27;101706.97;;;6.55;81.93
21988;BME280;11158;53.404;-1.510;2024-01-30T10:02:53;101710.50;;;6.52;82.93
21988;BME280;11158;53.404;-1.510;2024-01-30T10:05:19;101715.81;;;6.54;84.29
21988;BME280;11158;53.404;-1.510;2024-01-30T10:07:55;101722.81;;;6.69;83.63
21988;BME280;11158;53.404;-1.510;2024-01-30T10:10:23;101722.81;;;6.67;81.99
21988;BME280;11158;53.404;-1.510;2024-01-30T10:12:49;101721.97;;;6.60;82.64
21988;BME280;11158;53.404;-1.510;2024-01-30T10:15:15;101730.75;;;6.65;82.78
21988;BME280;11158;53.404;-1.510;2024-01-30T10:17:40;101725.50;;;6.64;82.55
21988;BME280;11158;53.404;-1.510;2024-01-30T10:20:06;101736.03;;;6.75;82.11
21988;BME280;11158;53.404;-1.510;2024-01-30T10:22:33;101739.50;;;6.86;82.62
21988;BME280;11158;53.404;-1.510;2024-01-30T10:25:00;101757.19;;;6.81;81.90
21988;BME280;11158;53.404;-1.510;2024-01-30T10:27:28;101759.00;;;6.74;79.82
21988;BME280;11158;53.404;-1.510;2024-01-30T10:29:55;101760.75;;;6.77;81.16
21988;BME280;11158;53.404;-1.510;2024-01-30T10:32:21;101769.53;;;6.91;81.64
21988;BME280;11158;53.404;-1.510;2024-01-30T10:34:47;101773.03;;;6.92;80.29
21988;BME280;11158;53.404;-1.510;2024-01-30T10:37:12;101781.03;;;6.89;80.21
21988;BME280;11158;53.404;-1.510;2024-01-30T10:39:42;101788.97;;;6.81;79.57
21988;BME280;11158;53.404;-1.510;2024-01-30T10:42:15;101798.72;;;6.79;81.54
21988;BME280;11158;53.404;-1.510;2024-01-30T10:45:02;101797.88;;;6.69;79.84
21988;BME280;11158;53.404;-1.510;2024-01-30T10:47:34;101805.84;;;6.61;79.62
21988;BME280;11158;53.404;-1.510;2024-01-30T10:50:00;101812.91;;;6.58;80.28
21988;BME280;11158;53.404;-1.510;2024-01-30T10:52:28;101809.38;;;6.67;80.76
21988;BME280;11158;53.404;-1.510;2024-01-30T10:54:55;101814.69;;;6.57;78.76
21988;BME280;11158;53.404;-1.510;2024-01-30T10:57:23;101822.63;;;6.59;78.11
21988;BME280;11158;53.404;-1.510;2024-01-30T10:59:51;101823.47;;;6.65;78.47
21988;BME280;11158;53.404;-1.510;2024-01-30T11:02:18;101827.88;;;6.71;78.19
21988;BME280;11158;53.404;-1.510;2024-01-30T11:04:45;101830.50;;;6.79;79.21
21988;BME280;11158;53.404;-1.510;2024-01-30T11:07:17;101834.94;;;6.77;78.55
21988;BME280;11158;53.404;-1.510;2024-01-30T11:09:49;101842.84;;;6.88;77.82
21988;BME280;11158;53.404;-1.510;2024-01-30T11:12:16;101843.75;;;6.85;77.32
21988;BME280;11158;53.404;-1.510;2024-01-30T11:14:41;101844.66;;;6.73;77.05
21988;BME280;11158;53.404;-1.510;2024-01-30T11:17:09;101852.63;;;6.70;76.73
21988;BME280;11158;53.404;-1.510;2024-01-30T11:19:35;101855.22;;;6.81;77.98
21988;BME280;11158;53.404;-1.510;2024-01-30T11:22:00;101847.31;;;6.76;78.78
21988;BME280;11158;53.404;-1.510;2024-01-30T11:24:26;101856.16;;;6.74;76.62
21988;BME280;11158;53.404;-1.510;2024-01-30T11:26:58;101857.91;;;6.67;77.40
21988;BME280;11158;53.404;-1.510;2024-01-30T11:29:28;101853.53;;;6.57;76.95
21988;BME280;11158;53.404;-1.510;2024-01-30T11:31:57;101851.78;;;6.42;76.60
21988;BME280;11158;53.404;-1.510;2024-01-30T11:34:23;101855.34;;;6.38;76.83
21988;BME280;11158;53.404;-1.510;2024-01-30T11:36:56;101859.75;;;6.31;77.28
21988;BME280;11158;53.404;-1.510;2024-01-30T11:39:25;101866.78;;;6.35;77.49
21988;BME280;11158;53.404;-1.510;2024-01-30T11:41:52;101867.69;;;6.43;76.42
21988;BME280;11158;53.404;-1.510;2024-01-30T11:44:19;101876.50;;;6.44;75.73
21988;BME280;11158;53.404;-1.510;2024-01-30T11:46:49;101878.28;;;6.45;75.08
21988;BME280;11158;53.404;-1.510;2024-01-30T11:49:15;101884.44;;;6.44;77.82
21988;BME280;11158;53.404;-1.510;2024-01-30T11:51:41;101887.13;;;6.39;77.45
21988;BME280;11158;53.404;-1.510;2024-01-30T11:54:07;101887.13;;;6.39;76.87
21988;BME280;11158;53.404;-1.510;2024-01-30T11:56:33;101887.97;;;6.46;78.13
21988;BME280;11158;53.404;-1.510;2024-01-30T11:58:58;101899.44;;;6.54;77.25
21988;BME280;11158;53.404;-1.510;2024-01-30T12:01:26;101895.91;;;6.74;78.08
21988;BME280;11158;53.404;-1.510;2024-01-30T12:03:51;101896.78;;;6.71;77.31
21988;BME280;11158;53.404;-1.510;2024-01-30T12:06:17;101893.19;;;6.95;75.24
21988;BME280;11158;53.404;-1.510;2024-01-30T12:08:42;101895.84;;;6.95;77.45
21988;BME280;11158;53.404;-1.510;2024-01-30T12:11:08;101899.38;;;6.91;78.12
21988;BME280;11158;53.404;-1.510;2024-01-30T12:13:34;101902.00;;;7.10;76.33
21988;BME280;11158;53.404;-1.510;2024-01-30T12:16:03;101909.03;;;7.18;75.44
21988;BME280;11158;53.404;-1.510;2024-01-30T12:18:28;101919.56;;;7.34;76.09
21988;BME280;11158;53.404;-1.510;2024-01-30T12:21:00;101922.22;;;7.40;75.81
21988;BME280;11158;53.404;-1.510;2024-01-30T12:23:29;101923.09;;;7.40;75.44
21988;BME280;11158;53.404;-1.510;2024-01-30T12:25:54;101926.72;;;7.18;77.14
21988;BME280;11158;53.404;-1.510;2024-01-30T12:28:20;101923.19;;;7.17;74.76
21988;BME280;11158;53.404;-1.510;2024-01-30T12:30:46;101931.16;;;7.05;75.02
21988;BME280;11158;53.404;-1.510;2024-01-30T12:33:18;101945.31;;;7.01;74.78
21988;BME280;11158;53.404;-1.510;2024-01-30T12:35:47;101950.63;;;6.90;72.40
21988;BME280;11158;53.404;-1.510;2024-01-30T12:38:16;101956.84;;;6.81;72.56
21988;BME280;11158;53.404;-1.510;2024-01-30T12:40:41;101958.59;;;6.75;72.05
21988;BME280;11158;53.404;-1.510;2024-01-30T12:43:07;101959.47;;;6.86;73.86